sensor_id;sensor_type;location;lat;lon;timestamp;temperature;humidity
15426;DHT22;7812;50.072;7.036;2023-04-06T00:01:48;1.20;99.90
15426;DHT22;7812;50.072;7.036;2023-04-06T00:04:14;1.10;99.90
15426;DHT22;7812;50.072;7.036;2023-04-06T00:06:40;1.10;99.90
15426;DHT22;7812;50.072;7.036;2023-04-06T00:09:05;1.10;99.90
15426;DHT22;7812;50.072;7.036;2023-04-06T00:11:31;1.10;99.90
15426;DHT22;7812;50.072;7.036;2023-04-06T00:13:57;1.10;99.90
15426;DHT22;7812;50.072;7.036;2023-04-06T00:16:22;1.00;99.90
15426;DHT22;7812;50.072;7.036;2023-04-06T00:18:48;0.90;99.90
15426;DHT22;7812;50.072;7.036;2023-04-06T00:21:14;0.80;99.90
15426;DHT22;7812;50.072;7.036;2023-04-06T00:23:40;0.70;99.90
15426;DHT22;7812;50.072;7.036;2023-04-06T00:26:07;0.60;99.90
15426;DHT22;7812;50.072;7.036;2023-04-06T00:28:33;0.60;99.90
15426;DHT22;7812;50.072;7.036;2023-04-06T00:30:58;0.60;99.90
15426;DHT22;7812;50.072;7.036;2023-04-06T00:33:24;0.70;99.90
15426;DHT22;7812;50.072;7.036;2023-04-06T00:35:50;0.70;99.90
15426;DHT22;7812;50.072;7.036;2023-04-06T00:38:16;0.70;99.90
15426;DHT22;7812;50.072;7.036;2023-04-06T00:40:43;0.60;99.90
15426;DHT22;7812;50.072;7.036;2023-04-06T00:43:14;0.60;99.90
15426;DHT22;7812;50.072;7.036;2023-04-06T00:45:40;0.60;99.90
15426;DHT22;7812;50.072;7.036;2023-04-06T00:48:07;0.60;99.90
15426;DHT22;7812;50.072;7.036;2023-04-06T00:50:33;0.60;99.90
15426;DHT22;7812;50.072;7.036;2023-04-06T00:52:59;0.50;99.90
15426;DHT22;7812;50.072;7.036;2023-04-06T00:55:28;0.50;99.90
15426;DHT22;7812;50.072;7.036;2023-04-06T00:57:57;0.50;99.90
15426;DHT22;7812;50.072;7.036;2023-04-06T01:00:24;0.40;99.90
15426;DHT22;7812;50.072;7.036;2023-04-06T01:02:50;0.40;99.90
15426;DHT22;7812;50.072;7.036;2023-04-06T01:05:15;0.50;99.90
15426;DHT22;7812;50.072;7.036;2023-04-06T01:07:41;0.40;99.90
15426;DHT22;7812;50.072;7.036;2023-04-06T01:10:07;0.50;99.90
15426;DHT22;7812;50.072;7.036;2023-04-06T01:12:33;0.50;99.90
15426;DHT22;7812;50.072;7.036;2023-04-06T01:14:59;0.50;99.90
15426;DHT22;7812;50.072;7.036;2023-04-06T01:17:25;0.40;99.90
15426;DHT22;7812;50.072;7.036;2023-04-06T01:19:52;0.40;99.90
15426;DHT22;7812;50.072;7.036;2023-04-06T01:22:19;0.40;99.90
15426;DHT22;7812;50.072;7.036;2023-04-06T01:24:45;0.40;99.90
15426;DHT22;7812;50.072;7.036;2023-04-06T01:27:11;0.40;99.90
15426;DHT22;7812;50.072;7.036;2023-04-06T01:29:37;0.30;99.90
15426;DHT22;7812;50.072;7.036;2023-04-06T01:32:02;0.30;99.90
15426;DHT22;7812;50.072;7.036;2023-04-06T01:34:28;0.10;99.90
15426;DHT22;7812;50.072;7.036;2023-04-06T01:36:54;0.10;99.90
15426;DHT22;7812;50.072;7.036;2023-04-06T01:39:20;0.10;99.90
15426;DHT22;7812;50.072;7.036;2023-04-06T01:41:46;0.10;99.90
15426;DHT22;7812;50.072;7.036;2023-04-06T01:44:18;0.10;99.90
15426;DHT22;7812;50.072;7.036;2023-04-06T01:46:44;0.10;99.90
15426;DHT22;7812;50.072;7.036;2023-04-06T01:49:11;0.10;99.90
15426;DHT22;7812;50.072;7.036;2023-04-06T01:51:37;0.00;99.90
15426;DHT22;7812;50.072;7.036;2023-04-06T01:54:03;0.00;99.90
15426;DHT22;7812;50.072;7.036;2023-04-06T01:56:29;0.00;99.90
15426;DHT22;7812;50.072;7.036;2023-04-06T01:58:55;0.10;99.90
15426;DHT22;7812;50.072;7.036;2023-04-06T02:01:21;0.10;99.90
15426;DHT22;7812;50.072;7.036;2023-04-06T02:03:47;0.20;99.90
15426;DHT22;7812;50.072;7.036;2023-04-06T02:06:13;0.20;99.90
15426;DHT22;7812;50.072;7.036;2023-04-06T02:08:38;0.10;99.90
15426;DHT22;7812;50.072;7.036;2023-04-06T02:11:04;0.00;99.90
15426;DHT22;7812;50.072;7.036;2023-04-06T02:13:30;0.00;99.90
15426;DHT22;7812;50.072;7.036;2023-04-06T02:15:56;-0.10;99.90
15426;DHT22;7812;50.072;7.036;2023-04-06T02:18:22;-0.10;99.90
15426;DHT22;7812;50.072;7.036;2023-04-06T02:20:48;0.00;99.90
15426;DHT22;7812;50.072;7.036;2023-04-06T02:23:14;0.00;99.90
15426;DHT22;7812;50.072;7.036;2023-04-06T02:25:40;0.00;99.90
15426;DHT22;7812;50.072;7.036;2023-04-06T02:28:06;0.00;99.90
15426;DHT22;7812;50.072;7.036;2023-04-06T02:30:32;0.00;99.90
15426;DHT22;7812;50.072;7.036;2023-04-06T02:32:59;0.00;99.90
15426;DHT22;7812;50.072;7.036;2023-04-06T02:35:25;0.00;99.90
15426;DHT22;7812;50.072;7.036;2023-04-06T02:37:51;-0.20;99.90
15426;DHT22;7812;50.072;7.036;2023-04-06T02:40:17;-0.10;99.90
15426;DHT22;7812;50.072;7.036;2023-04-06T02:42:42;-0.10;99.90
15426;DHT22;7812;50.072;7.036;2023-04-06T02:45:08;-0.20;99.90
15426;DHT22;7812;50.072;7.036;2023-04-06T02:47:34;-0.20;99.90
15426;DHT22;7812;50.072;7.036;2023-04-06T02:49:59;-0.30;99.90
15426;DHT22;7812;50.072;7.036;2023-04-06T02:52:26;-0.30;99.90
15426;DHT22;7812;50.072;7.036;2023-04-06T02:54:51;-0.30;99.90
15426;DHT22;7812;50.072;7.036;2023-04-06T02:57:17;-0.30;99.90
15426;DHT22;7812;50.072;7.036;2023-04-06T02:59:43;-0.30;99.90
15426;DHT22;7812;50.072;7.036;2023-04-06T03:02:08;-0.30;99.90
15426;DHT22;7812;50.072;7.036;2023-04-06T03:04:34;-0.30;99.90
15426;DHT22;7812;50.072;7.036;2023-04-06T03:07:00;-0.30;99.90
15426;DHT22;7812;50.072;7.036;2023-04-06T03:09:26;-0.30;99.90
15426;DHT22;7812;50.072;7.036;2023-04-06T03:11:52;-0.40;99.90
15426;DHT22;7812;50.072;7.036;2023-04-06T03:14:18;-0.40;99.90
15426;DHT22;7812;50.072;7.036;2023-04-06T03:16:47;-0.50;99.90
15426;DHT22;7812;50.072;7.036;2023-04-06T03:19:13;-0.40;99.90
15426;DHT22;7812;50.072;7.036;2023-04-06T03:21:40;-0.40;99.90
15426;DHT22;7812;50.072;7.036;2023-04-06T03:24:06;-0.40;99.90
15426;DHT22;7812;50.072;7.036;2023-04-06T03:26:32;-0.40;99.90
15426;DHT22;7812;50.072;7.036;2023-04-06T03:28:58;-0.40;99.90
15426;DHT22;7812;50.072;7.036;2023-04-06T03:31:24;-0.50;99.90
15426;DHT22;7812;50.072;7.036;2023-04-06T03:33:49;-0.50;99.90
15426;DHT22;7812;50.072;7.036;2023-04-06T03:36:15;-0.50;99.90
15426;DHT22;7812;50.072;7.036;2023-04-06T03:38:41;-0.60;99.90
15426;DHT22;7812;50.072;7.036;2023-04-06T03:41:07;-0.50;99.90
15426;DHT22;7812;50.072;7.036;2023-04-06T03:43:32;-0.60;99.90
15426;DHT22;7812;50.072;7.036;2023-04-06T03:45:58;-0.50;99.90
15426;DHT22;7812;50.072;7.036;2023-04-06T03:48:24;-0.50;99.90
15426;DHT22;7812;50.072;7.036;2023-04-06T03:50:49;-0.40;99.90
15426;DHT22;7812;50.072;7.036;2023-04-06T03:53:15;-0.40;99.90
15426;DHT22;7812;50.072;7.036;2023-04-06T03:55:41;-0.50;99.90
15426;DHT22;7812;50.072;7.036;2023-04-06T03:58:06;-0.50;99.90
15426;DHT22;7812;50.072;7.036;2023-04-06T04:00:32;-0.50;99.90
15426;DHT22;7812;50.072;7.036;2023-04-06T04:02:58;-0.40;99.90
15426;DHT22;7812;50.072;7.036;2023-04-06T04:05:24;-0.30;99.90
15426;DHT22;7812;50.072;7.036;2023-04-06T04:07:51;-0.30;99.90
15426;DHT22;7812;50.072;7.036;2023-04-06T04:10:17;-0.20;99.90
15426;DHT22;7812;50.072;7.036;2023-04-06T04:12:43;-0.30;99.90
15426;DHT22;7812;50.072;7.036;2023-04-06T04:15:09;-0.30;99.90
15426;DHT22;7812;50.072;7.036;2023-04-06T04:17:35;-0.40;99.90
15426;DHT22;7812;50.072;7.036;2023-04-06T04:20:01;-0.40;99.90
15426;DHT22;7812;50.072;7.036;2023-04-06T04:22:26;-0.40;99.90
15426;DHT22;7812;50.072;7.036;2023-04-06T04:24:53;-0.50;99.90
15426;DHT22;7812;50.072;7.036;2023-04-06T04:27:19;-0.50;99.90
15426;DHT22;7812;50.072;7.036;2023-04-06T04:29:46;-0.50;99.90
15426;DHT22;7812;50.072;7.036;2023-04-06T04:32:11;-0.50;99.90
15426;DHT22;7812;50.072;7.036;2023-04-06T04:34:37;-0.50;99.90
15426;DHT22;7812;50.072;7.036;2023-04-06T04:37:05;-0.50;99.90
15426;DHT22;7812;50.072;7.036;2023-04-06T04:39:31;-0.50;99.90
15426;DHT22;7812;50.072;7.036;2023-04-06T04:41:57;-0.50;99.90
15426;DHT22;7812;50.072;7.036;2023-04-06T04:44:24;-0.70;99.90
15426;DHT22;7812;50.072;7.036;2023-04-06T04:46:49;-0.60;99.90
15426;DHT22;7812;50.072;7.036;2023-04-06T04:49:15;-0.60;99.90
15426;DHT22;7812;50.072;7.036;2023-04-06T04:51:41;-0.60;99.90
15426;DHT22;7812;50.072;7.036;2023-04-06T04:54:07;-0.60;99.90
15426;DHT22;7812;50.072;7.036;2023-04-06T04:56:32;-0.80;99.90
15426;DHT22;7812;50.072;7.036;2023-04-06T04:58:58;-1.00;99.90
15426;DHT22;7812;50.072;7.036;2023-04-06T05:01:24;-0.90;99.90
15426;DHT22;7812;50.072;7.036;2023-04-06T05:03:50;-0.80;99.90
15426;DHT22;7812;50.072;7.036;2023-04-06T05:06:15;-0.70;99.90
15426;DHT22;7812;50.072;7.036;2023-04-06T05:08:42;-0.60;99.90
15426;DHT22;7812;50.072;7.036;2023-04-06T05:11:08;-0.50;99.90
15426;DHT22;7812;50.072;7.036;2023-04-06T05:13:34;-0.50;99.90
15426;DHT22;7812;50.072;7.036;2023-04-06T05:16:00;-0.50;99.90
15426;DHT22;7812;50.072;7.036;2023-04-06T05:18:26;-0.50;99.90
15426;DHT22;7812;50.072;7.036;2023-04-06T05:20:51;-0.50;99.90
15426;DHT22;7812;50.072;7.036;2023-04-06T05:23:17;-0.50;99.90
15426;DHT22;7812;50.072;7.036;2023-04-06T05:25:43;-0.60;99.90
15426;DHT22;7812;50.072;7.036;2023-04-06T05:28:08;-0.60;99.90
15426;DHT22;7812;50.072;7.036;2023-04-06T05:30:34;-0.60;99.90
15426;DHT22;7812;50.072;7.036;2023-04-06T05:33:01;-0.60;99.90
15426;DHT22;7812;50.072;7.036;2023-04-06T05:35:27;-0.60;99.90
15426;DHT22;7812;50.072;7.036;2023-04-06T05:37:53;-0.60;99.90
15426;DHT22;7812;50.072;7.036;2023-04-06T05:40:18;-0.50;99.90
15426;DHT22;7812;50.072;7.036;2023-04-06T05:42:44;-0.40;99.90
15426;DHT22;7812;50.072;7.036;2023-04-06T05:45:11;-0.40;99.90
15426;DHT22;7812;50.072;7.036;2023-04-06T05:47:42;-0.40;99.90
15426;DHT22;7812;50.072;7.036;2023-04-06T05:50:10;-0.20;99.90
15426;DHT22;7812;50.072;7.036;2023-04-06T05:52:36;-0.10;99.90
15426;DHT22;7812;50.072;7.036;2023-04-06T05:55:02;-0.10;99.90
15426;DHT22;7812;50.072;7.036;2023-04-06T05:57:29;0.00;99.90
15426;DHT22;7812;50.072;7.036;2023-04-06T05:59:55;0.20;99.90
15426;DHT22;7812;50.072;7.036;2023-04-06T06:02:21;0.40;99.90
15426;DHT22;7812;50.072;7.036;2023-04-06T06:04:47;0.50;99.90
15426;DHT22;7812;50.072;7.036;2023-04-06T06:07:14;0.60;99.90
15426;DHT22;7812;50.072;7.036;2023-04-06T06:09:40;0.90;99.90
15426;DHT22;7812;50.072;7.036;2023-04-06T06:12:07;1.30;99.90
15426;DHT22;7812;50.072;7.036;2023-04-06T06:14:33;2.50;99.90
15426;DHT22;7812;50.072;7.036;2023-04-06T06:16:58;3.60;99.90
15426;DHT22;7812;50.072;7.036;2023-04-06T06:19:24;4.50;99.90
15426;DHT22;7812;50.072;7.036;2023-04-06T06:21:50;5.30;99.90
15426;DHT22;7812;50.072;7.036;2023-04-06T06:24:16;5.10;99.90
15426;DHT22;7812;50.072;7.036;2023-04-06T06:26:41;5.60;99.90
15426;DHT22;7812;50.072;7.036;2023-04-06T06:29:08;6.30;99.90
15426;DHT22;7812;50.072;7.036;2023-04-06T06:31:34;7.00;99.90
15426;DHT22;7812;50.072;7.036;2023-04-06T06:34:00;7.60;99.90
15426;DHT22;7812;50.072;7.036;2023-04-06T06:36:27;7.60;99.90
15426;DHT22;7812;50.072;7.036;2023-04-06T06:38:53;7.00;99.90
15426;DHT22;7812;50.072;7.036;2023-04-06T06:41:19;6.20;99.90
15426;DHT22;7812;50.072;7.036;2023-04-06T06:43:44;8.00;99.90
15426;DHT22;7812;50.072;7.036;2023-04-06T06:46:10;9.50;99.90
15426;DHT22;7812;50.072;7.036;2023-04-06T06:48:36;10.00;99.90
15426;DHT22;7812;50.072;7.036;2023-04-06T06:51:02;10.70;99.90
15426;DHT22;7812;50.072;7.036;2023-04-06T06:53:27;10.10;99.90
15426;DHT22;7812;50.072;7.036;2023-04-06T06:55:53;9.90;99.90
15426;DHT22;7812;50.072;7.036;2023-04-06T06:58:19;10.60;99.90
15426;DHT22;7812;50.072;7.036;2023-04-06T07:00:47;11.60;99.90
15426;DHT22;7812;50.072;7.036;2023-04-06T07:03:13;11.60;99.90
15426;DHT22;7812;50.072;7.036;2023-04-06T07:05:44;12.20;99.90
15426;DHT22;7812;50.072;7.036;2023-04-06T07:08:14;13.60;99.90
15426;DHT22;7812;50.072;7.036;2023-04-06T07:10:40;14.00;99.90
15426;DHT22;7812;50.072;7.036;2023-04-06T07:13:05;13.20;99.90
15426;DHT22;7812;50.072;7.036;2023-04-06T07:15:31;14.30;99.90
15426;DHT22;7812;50.072;7.036;2023-04-06T07:17:57;15.60;99.90
15426;DHT22;7812;50.072;7.036;2023-04-06T07:20:22;15.80;99.90
15426;DHT22;7812;50.072;7.036;2023-04-06T07:22:48;15.00;99.90
15426;DHT22;7812;50.072;7.036;2023-04-06T07:25:14;15.60;99.90
15426;DHT22;7812;50.072;7.036;2023-04-06T07:27:40;14.60;99.90
15426;DHT22;7812;50.072;7.036;2023-04-06T07:30:06;13.50;99.90
15426;DHT22;7812;50.072;7.036;2023-04-06T07:32:32;12.40;99.90
15426;DHT22;7812;50.072;7.036;2023-04-06T07:34:59;12.00;99.90
15426;DHT22;7812;50.072;7.036;2023-04-06T07:37:25;12.10;99.90
15426;DHT22;7812;50.072;7.036;2023-04-06T07:39:51;11.50;99.90
15426;DHT22;7812;50.072;7.036;2023-04-06T07:42:16;10.40;99.90
15426;DHT22;7812;50.072;7.036;2023-04-06T07:44:42;9.80;99.90
15426;DHT22;7812;50.072;7.036;2023-04-06T07:47:08;9.60;99.90
15426;DHT22;7812;50.072;7.036;2023-04-06T07:49:33;9.60;99.90
15426;DHT22;7812;50.072;7.036;2023-04-06T07:51:59;10.30;99.90
15426;DHT22;7812;50.072;7.036;2023-04-06T07:54:25;11.10;99.90
15426;DHT22;7812;50.072;7.036;2023-04-06T07:56:51;11.80;99.90
15426;DHT22;7812;50.072;7.036;2023-04-06T07:59:17;12.00;99.90
15426;DHT22;7812;50.072;7.036;2023-04-06T08:01:43;11.90;99.90
15426;DHT22;7812;50.072;7.036;2023-04-06T08:04:09;12.40;99.90
15426;DHT22;7812;50.072;7.036;2023-04-06T08:06:34;13.30;99.90
15426;DHT22;7812;50.072;7.036;2023-04-06T08:09:02;12.50;99.90
15426;DHT22;7812;50.072;7.036;2023-04-06T08:11:28;12.60;99.90
15426;DHT22;7812;50.072;7.036;2023-04-06T08:13:54;13.00;99.90
15426;DHT22;7812;50.072;7.036;2023-04-06T08:16:22;12.40;99.90
15426;DHT22;7812;50.072;7.036;2023-04-06T08:18:47;12.80;99.90
15426;DHT22;7812;50.072;7.036;2023-04-06T08:21:13;12.40;99.90
15426;DHT22;7812;50.072;7.036;2023-04-06T08:23:39;13.60;99.90
15426;DHT22;7812;50.072;7.036;2023-04-06T08:26:04;13.90;99.90
15426;DHT22;7812;50.072;7.036;2023-04-06T08:28:30;15.10;99.90
15426;DHT22;7812;50.072;7.036;2023-04-06T08:30:56;16.80;99.90
15426;DHT22;7812;50.072;7.036;2023-04-06T08:33:21;16.10;99.90
15426;DHT22;7812;50.072;7.036;2023-04-06T08:35:47;16.50;99.90
15426;DHT22;7812;50.072;7.036;2023-04-06T08:38:13;15.20;99.90
15426;DHT22;7812;50.072;7.036;2023-04-06T08:40:39;17.40;99.90
15426;DHT22;7812;50.072;7.036;2023-04-06T08:43:13;18.70;98.50
15426;DHT22;7812;50.072;7.036;2023-04-06T08:45:40;18.50;93.70
15426;DHT22;7812;50.072;7.036;2023-04-06T08:48:06;17.50;92.90
15426;DHT22;7812;50.072;7.036;2023-04-06T08:50:33;17.30;93.40
15426;DHT22;7812;50.072;7.036;2023-04-06T08:52:59;17.40;93.10
15426;DHT22;7812;50.072;7.036;2023-04-06T08:55:25;17.20;92.40
15426;DHT22;7812;50.072;7.036;2023-04-06T08:57:52;16.40;93.10
15426;DHT22;7812;50.072;7.036;2023-04-06T09:00:21;16.00;93.80
15426;DHT22;7812;50.072;7.036;2023-04-06T09:02:47;16.10;93.40
15426;DHT22;7812;50.072;7.036;2023-04-06T09:05:14;15.40;93.10
15426;DHT22;7812;50.072;7.036;2023-04-06T09:07:40;14.30;94.40
15426;DHT22;7812;50.072;7.036;2023-04-06T09:10:06;13.60;95.40
15426;DHT22;7812;50.072;7.036;2023-04-06T09:12:34;13.60;96.90
15426;DHT22;7812;50.072;7.036;2023-04-06T09:15:01;14.00;96.00
15426;DHT22;7812;50.072;7.036;2023-04-06T09:17:32;14.10;96.30
15426;DHT22;7812;50.072;7.036;2023-04-06T09:20:02;14.20;95.60
15426;DHT22;7812;50.072;7.036;2023-04-06T09:22:39;14.10;95.80
15426;DHT22;7812;50.072;7.036;2023-04-06T09:25:07;14.60;95.70
15426;DHT22;7812;50.072;7.036;2023-04-06T09:27:35;15.10;94.30
15426;DHT22;7812;50.072;7.036;2023-04-06T09:30:11;15.30;93.90
15426;DHT22;7812;50.072;7.036;2023-04-06T09:32:55;15.10;94.30
15426;DHT22;7812;50.072;7.036;2023-04-06T09:35:22;15.40;94.80
15426;DHT22;7812;50.072;7.036;2023-04-06T09:37:52;15.70;93.40
15426;DHT22;7812;50.072;7.036;2023-04-06T09:40:18;15.90;93.60
15426;DHT22;7812;50.072;7.036;2023-04-06T09:42:48;15.60;92.80
15426;DHT22;7812;50.072;7.036;2023-04-06T09:45:17;15.50;92.80
15426;DHT22;7812;50.072;7.036;2023-04-06T09:47:44;15.30;92.10
15426;DHT22;7812;50.072;7.036;2023-04-06T09:50:11;15.00;92.20
15426;DHT22;7812;50.072;7.036;2023-04-06T09:52:42;14.80;92.70
15426;DHT22;7812;50.072;7.036;2023-04-06T09:55:10;15.00;92.90
15426;DHT22;7812;50.072;7.036;2023-04-06T10:00:12;15.40;92.10
15426;DHT22;7812;50.072;7.036;2023-04-06T10:03:05;16.00;91.60
15426;DHT22;7812;50.072;7.036;2023-04-06T10:05:41;17.00;90.90
15426;DHT22;7812;50.072;7.036;2023-04-06T10:08:10;17.00;88.20
15426;DHT22;7812;50.072;7.036;2023-04-06T10:10:36;15.90;89.30
15426;DHT22;7812;50.072;7.036;2023-04-06T10:13:03;14.80;91.10
15426;DHT22;7812;50.072;7.036;2023-04-06T10:15:29;14.50;90.90
15426;DHT22;7812;50.072;7.036;2023-04-06T10:17:59;14.60;92.00
15426;DHT22;7812;50.072;7.036;2023-04-06T10:23:12;14.90;91.50
15426;DHT22;7812;50.072;7.036;2023-04-06T10:25:52;14.60;92.20
15426;DHT22;7812;50.072;7.036;2023-04-06T10:28:19;14.70;93.00
15426;DHT22;7812;50.072;7.036;2023-04-06T10:30:45;14.30;91.70
15426;DHT22;7812;50.072;7.036;2023-04-06T10:33:14;14.20;92.90
15426;DHT22;7812;50.072;7.036;2023-04-06T10:35:40;14.00;93.20
15426;DHT22;7812;50.072;7.036;2023-04-06T10:38:06;13.70;93.00
15426;DHT22;7812;50.072;7.036;2023-04-06T10:40:39;13.30;94.00
15426;DHT22;7812;50.072;7.036;2023-04-06T10:43:12;13.30;94.80
15426;DHT22;7812;50.072;7.036;2023-04-06T10:45:39;13.30;94.60
15426;DHT22;7812;50.072;7.036;2023-04-06T10:48:15;13.50;95.80
15426;DHT22;7812;50.072;7.036;2023-04-06T10:50:47;13.80;95.40
15426;DHT22;7812;50.072;7.036;2023-04-06T10:53:21;13.90;94.70
15426;DHT22;7812;50.072;7.036;2023-04-06T10:55:49;14.60;95.60
15426;DHT22;7812;50.072;7.036;2023-04-06T10:58:15;15.40;93.30
15426;DHT22;7812;50.072;7.036;2023-04-06T11:00:48;15.50;93.10
15426;DHT22;7812;50.072;7.036;2023-04-06T11:03:14;15.40;93.30
15426;DHT22;7812;50.072;7.036;2023-04-06T11:05:44;15.00;92.80
15426;DHT22;7812;50.072;7.036;2023-04-06T11:08:10;15.90;92.80
15426;DHT22;7812;50.072;7.036;2023-04-06T11:10:37;15.70;93.50
15426;DHT22;7812;50.072;7.036;2023-04-06T11:13:03;15.90;92.30
15426;DHT22;7812;50.072;7.036;2023-04-06T11:15:34;16.20;91.80
15426;DHT22;7812;50.072;7.036;2023-04-06T11:18:04;16.80;91.30
15426;DHT22;7812;50.072;7.036;2023-04-06T11:20:30;17.40;91.50
15426;DHT22;7812;50.072;7.036;2023-04-06T11:22:56;17.60;90.10
15426;DHT22;7812;50.072;7.036;2023-04-06T11:25:23;17.10;90.10
15426;DHT22;7812;50.072;7.036;2023-04-06T11:27:50;16.60;90.00
15426;DHT22;7812;50.072;7.036;2023-04-06T11:30:22;16.20;90.90
15426;DHT22;7812;50.072;7.036;2023-04-06T11:32:48;15.60;91.60
15426;DHT22;7812;50.072;7.036;2023-04-06T11:35:21;15.50;92.00
15426;DHT22;7812;50.072;7.036;2023-04-06T11:37:48;15.50;92.10
15426;DHT22;7812;50.072;7.036;2023-04-06T11:40:14;15.70;92.50
15426;DHT22;7812;50.072;7.036;2023-04-06T11:42:41;16.00;91.70
15426;DHT22;7812;50.072;7.036;2023-04-06T11:45:07;15.70;92.00
15426;DHT22;7812;50.072;7.036;2023-04-06T11:47:36;15.50;92.60
15426;DHT22;7812;50.072;7.036;2023-04-06T11:50:10;15.70;93.50
15426;DHT22;7812;50.072;7.036;2023-04-06T11:52:36;16.20;92.60
15426;DHT22;7812;50.072;7.036;2023-04-06T11:55:17;16.00;91.90
15426;DHT22;7812;50.072;7.036;2023-04-06T11:57:44;15.50;92.90
15426;DHT22;7812;50.072;7.036;2023-04-06T12:00:11;15.80;92.70
15426;DHT22;7812;50.072;7.036;2023-04-06T12:02:38;16.00;92.20
15426;DHT22;7812;50.072;7.036;2023-04-06T12:05:05;15.70;92.30
15426;DHT22;7812;50.072;7.036;2023-04-06T12:07:32;15.60;92.10
15426;DHT22;7812;50.072;7.036;2023-04-06T12:10:02;15.20;92.00
15426;DHT22;7812;50.072;7.036;2023-04-06T12:12:28;15.00;92.60
15426;DHT22;7812;50.072;7.036;2023-04-06T12:14:54;14.80;93.00
15426;DHT22;7812;50.072;7.036;2023-04-06T12:17:20;14.80;93.30
15426;DHT22;7812;50.072;7.036;2023-04-06T12:19:46;14.70;93.40
15426;DHT22;7812;50.072;7.036;2023-04-06T12:22:12;14.60;93.60
15426;DHT22;7812;50.072;7.036;2023-04-06T12:24:38;14.40;93.90
15426;DHT22;7812;50.072;7.036;2023-04-06T12:27:04;13.90;94.30
15426;DHT22;7812;50.072;7.036;2023-04-06T12:29:29;13.90;94.30
15426;DHT22;7812;50.072;7.036;2023-04-06T12:31:55;13.80;94.40
15426;DHT22;7812;50.072;7.036;2023-04-06T12:34:46;13.80;94.70
15426;DHT22;7812;50.072;7.036;2023-04-06T12:37:12;14.10;95.60
15426;DHT22;7812;50.072;7.036;2023-04-06T12:39:38;14.20;95.40
15426;DHT22;7812;50.072;7.036;2023-04-06T12:42:03;14.00;95.00
15426;DHT22;7812;50.072;7.036;2023-04-06T12:44:30;14.00;95.70
15426;DHT22;7812;50.072;7.036;2023-04-06T12:46:56;14.00;96.40
15426;DHT22;7812;50.072;7.036;2023-04-06T12:49:22;13.90;97.60
15426;DHT22;7812;50.072;7.036;2023-04-06T12:51:47;14.10;97.40
15426;DHT22;7812;50.072;7.036;2023-04-06T12:54:13;14.40;97.20
15426;DHT22;7812;50.072;7.036;2023-04-06T12:56:39;14.40;96.50
15426;DHT22;7812;50.072;7.036;2023-04-06T12:59:05;13.40;96.90
15426;DHT22;7812;50.072;7.036;2023-04-06T13:01:30;13.00;97.80
15426;DHT22;7812;50.072;7.036;2023-04-06T13:03:57;12.90;99.10
15426;DHT22;7812;50.072;7.036;2023-04-06T13:06:23;12.70;99.90
15426;DHT22;7812;50.072;7.036;2023-04-06T13:08:52;12.80;99.90
15426;DHT22;7812;50.072;7.036;2023-04-06T13:11:18;12.60;99.90
15426;DHT22;7812;50.072;7.036;2023-04-06T13:13:46;12.30;99.90
15426;DHT22;7812;50.072;7.036;2023-04-06T13:16:11;12.40;99.90
15426;DHT22;7812;50.072;7.036;2023-04-06T13:18:37;12.60;99.90
15426;DHT22;7812;50.072;7.036;2023-04-06T13:21:05;12.80;99.90
15426;DHT22;7812;50.072;7.036;2023-04-06T13:23:31;12.80;99.90
15426;DHT22;7812;50.072;7.036;2023-04-06T13:26:04;12.70;99.90
15426;DHT22;7812;50.072;7.036;2023-04-06T13:28:30;12.50;99.90
15426;DHT22;7812;50.072;7.036;2023-04-06T13:30:58;12.20;99.90
15426;DHT22;7812;50.072;7.036;2023-04-06T13:33:24;12.10;99.90
15426;DHT22;7812;50.072;7.036;2023-04-06T13:35:51;12.20;99.90
15426;DHT22;7812;50.072;7.036;2023-04-06T13:38:17;12.20;99.90
15426;DHT22;7812;50.072;7.036;2023-04-06T13:40:43;12.10;99.90
15426;DHT22;7812;50.072;7.036;2023-04-06T13:43:09;11.80;99.90
15426;DHT22;7812;50.072;7.036;2023-04-06T13:45:36;11.70;99.90
15426;DHT22;7812;50.072;7.036;2023-04-06T13:48:02;11.70;99.90
15426;DHT22;7812;50.072;7.036;2023-04-06T13:50:28;11.60;99.90
15426;DHT22;7812;50.072;7.036;2023-04-06T13:52:55;11.60;99.90
15426;DHT22;7812;50.072;7.036;2023-04-06T13:55:21;11.70;99.90
15426;DHT22;7812;50.072;7.036;2023-04-06T13:57:47;11.80;99.90
15426;DHT22;7812;50.072;7.036;2023-04-06T14:00:13;11.70;99.90
15426;DHT22;7812;50.072;7.036;2023-04-06T14:02:40;11.40;99.90
15426;DHT22;7812;50.072;7.036;2023-04-06T14:05:06;11.20;99.90
15426;DHT22;7812;50.072;7.036;2023-04-06T14:07:32;10.90;99.90
15426;DHT22;7812;50.072;7.036;2023-04-06T14:09:57;10.60;99.90
15426;DHT22;7812;50.072;7.036;2023-04-06T14:12:23;10.70;99.90
15426;DHT22;7812;50.072;7.036;2023-04-06T14:14:49;10.60;99.90
15426;DHT22;7812;50.072;7.036;2023-04-06T14:17:15;10.60;99.90
15426;DHT22;7812;50.072;7.036;2023-04-06T14:19:41;10.50;99.90
15426;DHT22;7812;50.072;7.036;2023-04-06T14:22:07;10.50;99.90
15426;DHT22;7812;50.072;7.036;2023-04-06T14:24:34;10.30;99.90
15426;DHT22;7812;50.072;7.036;2023-04-06T14:27:01;10.30;99.90
15426;DHT22;7812;50.072;7.036;2023-04-06T14:29:27;10.40;99.90
15426;DHT22;7812;50.072;7.036;2023-04-06T14:31:53;10.40;99.90
15426;DHT22;7812;50.072;7.036;2023-04-06T14:34:28;10.40;99.90
15426;DHT22;7812;50.072;7.036;2023-04-06T14:36:54;10.40;99.90
15426;DHT22;7812;50.072;7.036;2023-04-06T14:39:20;10.50;99.90
15426;DHT22;7812;50.072;7.036;2023-04-06T14:41:46;10.40;99.90
15426;DHT22;7812;50.072;7.036;2023-04-06T14:44:13;10.30;99.90
15426;DHT22;7812;50.072;7.036;2023-04-06T14:46:40;10.20;99.90
15426;DHT22;7812;50.072;7.036;2023-04-06T14:49:05;10.10;99.90
15426;DHT22;7812;50.072;7.036;2023-04-06T14:51:33;10.10;99.90
15426;DHT22;7812;50.072;7.036;2023-04-06T14:54:00;9.90;99.90
15426;DHT22;7812;50.072;7.036;2023-04-06T14:56:27;9.80;99.90
15426;DHT22;7812;50.072;7.036;2023-04-06T14:58:53;9.70;99.90
15426;DHT22;7812;50.072;7.036;2023-04-06T15:01:19;9.40;99.90
15426;DHT22;7812;50.072;7.036;2023-04-06T15:03:46;9.50;99.90
15426;DHT22;7812;50.072;7.036;2023-04-06T15:06:13;9.60;99.90
15426;DHT22;7812;50.072;7.036;2023-04-06T15:08:43;9.60;99.90
15426;DHT22;7812;50.072;7.036;2023-04-06T15:11:09;9.70;99.90
15426;DHT22;7812;50.072;7.036;2023-04-06T15:13:35;9.80;99.90
15426;DHT22;7812;50.072;7.036;2023-04-06T15:16:01;9.90;99.90
15426;DHT22;7812;50.072;7.036;2023-04-06T15:18:26;9.90;99.90
15426;DHT22;7812;50.072;7.036;2023-04-06T15:20:52;9.80;99.90
15426;DHT22;7812;50.072;7.036;2023-04-06T15:23:18;9.80;99.90
15426;DHT22;7812;50.072;7.036;2023-04-06T15:25:44;9.80;99.90
15426;DHT22;7812;50.072;7.036;2023-04-06T15:28:11;9.60;99.90
15426;DHT22;7812;50.072;7.036;2023-04-06T15:30:37;9.50;99.90
15426;DHT22;7812;50.072;7.036;2023-04-06T15:33:04;9.50;99.90
15426;DHT22;7812;50.072;7.036;2023-04-06T15:35:31;9.20;99.90
15426;DHT22;7812;50.072;7.036;2023-04-06T15:37:57;9.10;99.90
15426;DHT22;7812;50.072;7.036;2023-04-06T15:40:23;9.20;99.90
15426;DHT22;7812;50.072;7.036;2023-04-06T15:42:50;9.00;99.90
15426;DHT22;7812;50.072;7.036;2023-04-06T15:45:16;9.00;99.90
15426;DHT22;7812;50.072;7.036;2023-04-06T15:47:43;9.00;99.90
15426;DHT22;7812;50.072;7.036;2023-04-06T15:50:10;9.10;99.90
15426;DHT22;7812;50.072;7.036;2023-04-06T15:52:37;9.30;99.90